Time;durP1;ratioP1;P1;durP2;ratioP2;P2;SDS_P1;SDS_P2;PMS_P1;PMS_P2;Temp;Humidity;BMP_temperature;BMP_pressure;BME280_temperature;BME280_humidity;BME280_pressure;Samples;Min_cycle;Max_cycle;Signal;HPM_P1;HPM_P2
2021/04/02 00:01:26;;;;;;;;;;;20.60;48.40;;;;;;4976411;28;19922;-71
2021/04/02 00:03:53;;;;;;;;;;;20.60;48.30;;;;;;4977075;28;19922;-70
2021/04/02 00:06:19;;;;;;;;;;;20.60;48.30;;;;;;4976132;28;19922;-71
2021/04/02 00:08:45;;;;;;;;;;;20.60;48.30;;;;;;4974260;28;19921;-71
2021/04/02 00:11:11;;;;;;;;;;;20.70;48.30;;;;;;4976807;28;19929;-71
2021/04/02 00:13:38;;;;;;;;;;;20.60;48.50;;;;;;4971951;28;20306;-71
2021/04/02 00:16:04;;;;;;;;;;;20.60;48.30;;;;;;4964545;28;19929;-71
2021/04/02 00:18:30;;;;;;;;;;;20.60;48.30;;;;;;4974055;28;19949;-71
2021/04/02 00:20:57;;;;;;;;;;;20.60;48.40;;;;;;4974862;28;19925;-70
2021/04/02 00:23:23;;;;;;;;;;;20.60;48.40;;;;;;4974547;28;19922;-71
2021/04/02 00:25:49;;;;;;;;;;;20.50;48.40;;;;;;4973145;28;19984;-71
2021/04/02 00:28:15;;;;;;;;;;;20.50;48.40;;;;;;4951622;28;19926;-71
2021/04/02 00:30:42;;;;;;;;;;;20.50;48.40;;;;;;4970645;28;19925;-71
2021/04/02 00:33:08;;;;;;;;;;;20.50;48.40;;;;;;4972326;28;19930;-71
2021/04/02 00:35:34;;;;;;;;;;;20.50;48.40;;;;;;4974111;28;19925;-71
2021/04/02 00:38:01;;;;;;;;;;;20.50;48.40;;;;;;4976017;28;20420;-71
2021/04/02 00:40:27;;;;;;;;;;;20.50;48.30;;;;;;4974565;28;19948;-71
2021/04/02 00:42:53;;;;;;;;;;;20.50;48.40;;;;;;4974861;28;19933;-71
2021/04/02 00:45:19;;;;;;;;;;;20.50;48.60;;;;;;4949348;28;19930;-70
2021/04/02 00:47:46;;;;;;;;;;;20.50;48.50;;;;;;4972228;28;20437;-71
2021/04/02 00:50:12;;;;;;;;;;;20.50;48.50;;;;;;4973817;28;19929;-71
2021/04/02 00:52:38;;;;;;;;;;;20.50;48.30;;;;;;4961674;28;20373;-70
2021/04/02 00:55:06;;;;;;;;;;;20.50;48.30;;;;;;4973202;28;19929;-71
2021/04/02 00:57:32;;;;;;;;;;;20.50;48.20;;;;;;4975179;28;19930;-70
2021/04/02 00:59:58;;;;;;;;;;;20.50;48.20;;;;;;4952866;28;19941;-71
2021/04/02 01:02:24;;;;;;;;;;;20.50;48.30;;;;;;4965974;28;19930;-71
2021/04/02 01:04:50;;;;;;;;;;;20.50;48.30;;;;;;4974043;28;19926;-70
2021/04/02 01:07:16;;;;;;;;;;;20.50;48.30;;;;;;4975686;28;20309;-71
2021/04/02 01:09:43;;;;;;;;;;;20.50;48.50;;;;;;4974412;28;19925;-71
2021/04/02 01:12:10;;;;;;;;;;;20.50;48.50;;;;;;4954771;28;19926;-70
2021/04/02 01:14:36;;;;;;;;;;;20.50;48.40;;;;;;4964588;28;19932;-71
2021/04/02 01:17:02;;;;;;;;;;;20.50;48.30;;;;;;4954719;28;19930;-71
2021/04/02 01:19:29;;;;;;;;;;;20.50;48.30;;;;;;4967286;28;19977;-70
2021/04/02 01:21:56;;;;;;;;;;;20.50;48.30;;;;;;4974471;28;19933;-71
2021/04/02 01:24:30;;;;;;;;;;;20.40;48.20;;;;;;4962912;28;19926;-72
2021/04/02 01:26:57;;;;;;;;;;;20.40;48.30;;;;;;4972418;28;19940;-71
2021/04/02 01:29:25;;;;;;;;;;;20.40;48.20;;;;;;4973053;28;19932;-71
2021/04/02 01:31:52;;;;;;;;;;;20.40;48.30;;;;;;4973209;28;19929;-70
2021/04/02 01:34:19;;;;;;;;;;;20.40;48.20;;;;;;4962260;28;19967;-70
2021/04/02 01:36:45;;;;;;;;;;;20.40;48.10;;;;;;4972793;28;19980;-71
2021/04/02 01:39:11;;;;;;;;;;;20.40;48.20;;;;;;4975021;28;20503;-71
2021/04/02 01:41:38;;;;;;;;;;;20.40;48.40;;;;;;4974114;28;19933;-71
2021/04/02 01:44:04;;;;;;;;;;;20.40;48.40;;;;;;4959863;28;20304;-71
2021/04/02 01:46:31;;;;;;;;;;;20.50;48.30;;;;;;4959175;28;19925;-71
2021/04/02 01:48:58;;;;;;;;;;;20.50;48.20;;;;;;4974271;28;19948;-70
2021/04/02 01:51:25;;;;;;;;;;;20.50;48.10;;;;;;4971249;28;19925;-70
2021/04/02 01:53:52;;;;;;;;;;;20.50;48.00;;;;;;4947756;28;19926;-70
2021/04/02 01:56:18;;;;;;;;;;;20.50;48.00;;;;;;4971378;28;19984;-69
2021/04/02 01:58:44;;;;;;;;;;;20.50;48.00;;;;;;4973124;28;20341;-72
2021/04/02 02:01:10;;;;;;;;;;;20.50;48.10;;;;;;4959550;28;19932;-71
2021/04/02 02:03:37;;;;;;;;;;;20.50;48.30;;;;;;4973694;28;19933;-71
2021/04/02 02:06:04;;;;;;;;;;;20.50;48.20;;;;;;4961789;28;19934;-70
2021/04/02 02:08:30;;;;;;;;;;;20.50;48.30;;;;;;4972841;28;19930;-71
2021/04/02 02:10:57;;;;;;;;;;;20.50;48.40;;;;;;4965254;28;19964;-71
2021/04/02 02:13:23;;;;;;;;;;;20.50;48.50;;;;;;4969722;28;19933;-71
2021/04/02 02:15:49;;;;;;;;;;;20.50;48.40;;;;;;4972886;28;19933;-70
2021/04/02 02:18:15;;;;;;;;;;;20.40;48.30;;;;;;4963919;28;19925;-70
2021/04/02 02:20:42;;;;;;;;;;;20.50;48.40;;;;;;4969654;28;19950;-71
2021/04/02 02:23:08;;;;;;;;;;;20.40;48.40;;;;;;4972959;28;19926;-71
2021/04/02 02:25:34;;;;;;;;;;;20.40;48.30;;;;;;4970518;28;19925;-70
2021/04/02 02:28:00;;;;;;;;;;;20.40;48.30;;;;;;4974586;28;20391;-70
2021/04/02 02:30:27;;;;;;;;;;;20.40;48.20;;;;;;4972231;28;19926;-70
2021/04/02 02:32:53;;;;;;;;;;;20.40;48.20;;;;;;4971411;28;19933;-71
2021/04/02 02:35:19;;;;;;;;;;;20.40;48.30;;;;;;4973021;28;19930;-71
2021/04/02 02:37:46;;;;;;;;;;;20.40;48.20;;;;;;4973408;28;19930;-71
2021/04/02 02:40:13;;;;;;;;;;;20.40;48.20;;;;;;4973507;28;20884;-70
2021/04/02 02:42:39;;;;;;;;;;;20.40;48.30;;;;;;4971173;28;19933;-70
2021/04/02 02:45:05;;;;;;;;;;;20.40;48.50;;;;;;4971725;28;20401;-70
2021/04/02 02:47:31;;;;;;;;;;;20.40;48.50;;;;;;4973988;28;19933;-71
2021/04/02 02:49:58;;;;;;;;;;;20.40;48.50;;;;;;4973865;28;19926;-71
2021/04/02 02:52:24;;;;;;;;;;;20.40;48.40;;;;;;4973220;28;20398;-71
2021/04/02 02:54:50;;;;;;;;;;;20.40;48.30;;;;;;4986844;28;19926;-71
2021/04/02 02:57:16;;;;;;;;;;;20.40;48.30;;;;;;5001788;28;19929;-71
2021/04/02 02:59:42;;;;;;;;;;;20.40;48.40;;;;;;4981716;28;19926;-71
2021/04/02 03:02:08;;;;;;;;;;;20.40;48.30;;;;;;4971061;28;20361;-70
2021/04/02 03:04:34;;;;;;;;;;;20.40;48.30;;;;;;4968987;28;19930;-70
2021/04/02 03:07:01;;;;;;;;;;;20.40;48.40;;;;;;4975879;28;19933;-70
2021/04/02 03:09:27;;;;;;;;;;;20.40;48.30;;;;;;4974109;28;19933;-71
2021/04/02 03:11:53;;;;;;;;;;;20.40;48.20;;;;;;4974065;28;19925;-71
2021/04/02 03:14:20;;;;;;;;;;;20.40;48.00;;;;;;4968356;28;19979;-71
2021/04/02 03:16:47;;;;;;;;;;;20.40;47.90;;;;;;4972693;28;20398;-71
2021/04/02 03:19:13;;;;;;;;;;;20.50;48.00;;;;;;4961704;28;19949;-71
2021/04/02 03:21:39;;;;;;;;;;;20.50;47.80;;;;;;4962189;28;20016;-71
2021/04/02 03:24:06;;;;;;;;;;;20.50;47.80;;;;;;4972523;28;19967;-70
2021/04/02 03:26:32;;;;;;;;;;;20.60;47.70;;;;;;4971380;28;19981;-70
2021/04/02 03:28:59;;;;;;;;;;;20.60;47.70;;;;;;4974184;28;20410;-70
2021/04/02 03:31:25;;;;;;;;;;;20.70;47.70;;;;;;4970180;28;19932;-70
2021/04/02 03:33:51;;;;;;;;;;;20.70;47.50;;;;;;4970506;28;19948;-71
2021/04/02 03:36:17;;;;;;;;;;;20.70;47.40;;;;;;4971826;28;19925;-70
2021/04/02 03:38:44;;;;;;;;;;;20.70;47.20;;;;;;4972292;28;20602;-71
2021/04/02 03:41:11;;;;;;;;;;;20.80;47.30;;;;;;4973918;28;20278;-71
2021/04/02 03:43:37;;;;;;;;;;;20.80;47.30;;;;;;4975191;28;19933;-71
2021/04/02 03:46:04;;;;;;;;;;;20.80;47.30;;;;;;4967532;28;19925;-71
2021/04/02 03:48:31;;;;;;;;;;;20.80;47.30;;;;;;4977765;28;19937;-71
2021/04/02 03:50:57;;;;;;;;;;;20.80;47.30;;;;;;4966867;28;20444;-72
2021/04/02 03:53:24;;;;;;;;;;;20.80;47.30;;;;;;4976690;28;19925;-71
2021/04/02 03:55:50;;;;;;;;;;;20.80;47.30;;;;;;4979441;28;20445;-70
2021/04/02 03:58:16;;;;;;;;;;;20.70;47.30;;;;;;4977461;28;20309;-71
2021/04/02 04:00:43;;;;;;;;;;;20.70;47.20;;;;;;4940744;28;19932;-70
2021/04/02 04:03:10;;;;;;;;;;;20.70;47.20;;;;;;4969213;28;19976;-70
2021/04/02 04:05:36;;;;;;;;;;;20.70;47.30;;;;;;4963933;28;19981;-70
2021/04/02 04:08:02;;;;;;;;;;;20.70;47.20;;;;;;4976008;28;19926;-71
2021/04/02 04:10:28;;;;;;;;;;;20.70;47.20;;;;;;4976111;28;19932;-71
2021/04/02 04:12:54;;;;;;;;;;;20.70;47.20;;;;;;4973415;28;19926;-71
2021/04/02 04:15:20;;;;;;;;;;;20.70;47.20;;;;;;4976451;28;20096;-71
2021/04/02 04:17:46;;;;;;;;;;;20.70;47.20;;;;;;4978212;28;20030;-70
2021/04/02 04:20:14;;;;;;;;;;;20.70;47.20;;;;;;4964641;28;20365;-70
2021/04/02 04:22:40;;;;;;;;;;;20.70;47.20;;;;;;4976154;28;19973;-71
2021/04/02 04:25:07;;;;;;;;;;;20.70;47.20;;;;;;4975480;28;19922;-71
2021/04/02 04:27:33;;;;;;;;;;;20.80;47.30;;;;;;4971314;28;19973;-70
2021/04/02 04:29:59;;;;;;;;;;;20.80;47.30;;;;;;4976945;28;19930;-70
2021/04/02 04:32:25;;;;;;;;;;;20.80;47.30;;;;;;4972412;28;20378;-71
2021/04/02 04:34:51;;;;;;;;;;;20.80;47.30;;;;;;4965700;28;19922;-71
2021/04/02 04:37:18;;;;;;;;;;;20.80;47.20;;;;;;4973265;28;19922;-71
2021/04/02 04:39:44;;;;;;;;;;;20.80;47.30;;;;;;4963868;28;19922;-72
2021/04/02 04:42:10;;;;;;;;;;;20.80;47.10;;;;;;4976708;28;20856;-70
2021/04/02 04:44:36;;;;;;;;;;;20.80;47.00;;;;;;4974507;28;19933;-70
2021/04/02 04:47:02;;;;;;;;;;;20.80;46.90;;;;;;4964306;28;19976;-71
2021/04/02 04:49:28;;;;;;;;;;;20.80;47.00;;;;;;4974307;28;20157;-71
2021/04/02 04:51:54;;;;;;;;;;;20.80;46.90;;;;;;4975800;28;19929;-71
2021/04/02 04:54:22;;;;;;;;;;;20.80;47.00;;;;;;4972280;28;19933;-71
2021/04/02 04:56:48;;;;;;;;;;;20.80;46.90;;;;;;4974405;28;19933;-71
2021/04/02 04:59:14;;;;;;;;;;;20.80;46.90;;;;;;4975933;28;19926;-71
2021/04/02 05:01:40;;;;;;;;;;;20.80;46.90;;;;;;4978647;28;19929;-70
2021/04/02 05:04:07;;;;;;;;;;;20.80;46.80;;;;;;4975132;28;19925;-71
2021/04/02 05:06:33;;;;;;;;;;;20.80;46.90;;;;;;4964614;28;19926;-70
2021/04/02 05:08:59;;;;;;;;;;;20.70;46.70;;;;;;4972119;28;19944;-71
2021/04/02 05:11:27;;;;;;;;;;;20.80;46.80;;;;;;4975692;28;20053;-71
2021/04/02 05:13:53;;;;;;;;;;;20.80;46.80;;;;;;4969950;28;19921;-71
2021/04/02 05:16:20;;;;;;;;;;;20.80;46.80;;;;;;4976320;28;20641;-71
2021/04/02 05:18:46;;;;;;;;;;;20.80;46.80;;;;;;4974677;28;19929;-71
2021/04/02 05:21:12;;;;;;;;;;;20.80;46.80;;;;;;4974430;28;20420;-71
2021/04/02 05:23:38;;;;;;;;;;;20.80;46.70;;;;;;4975591;28;20409;-71
2021/04/02 05:26:04;;;;;;;;;;;20.80;46.70;;;;;;4973731;28;19921;-71
2021/04/02 05:28:31;;;;;;;;;;;20.80;46.70;;;;;;4974715;28;19941;-71
2021/04/02 05:30:57;;;;;;;;;;;20.80;46.70;;;;;;4975503;28;19926;-71
2021/04/02 05:33:23;;;;;;;;;;;20.80;46.70;;;;;;4973949;28;19992;-71
2021/04/02 05:35:49;;;;;;;;;;;20.80;46.70;;;;;;4974421;28;19926;-71
2021/04/02 05:38:15;;;;;;;;;;;20.80;46.70;;;;;;4974221;28;19944;-71
2021/04/02 05:40:41;;;;;;;;;;;20.80;46.80;;;;;;4974610;28;19922;-70
2021/04/02 05:43:09;;;;;;;;;;;20.80;46.80;;;;;;4972611;28;19930;-70
2021/04/02 05:45:36;;;;;;;;;;;20.80;46.80;;;;;;4973610;28;19925;-71
2021/04/02 05:48:02;;;;;;;;;;;20.80;46.80;;;;;;4975311;28;19938;-70
2021/04/02 05:50:30;;;;;;;;;;;20.80;46.70;;;;;;4974492;28;20264;-70
2021/04/02 05:52:56;;;;;;;;;;;20.80;46.60;;;;;;4974880;28;20043;-70
2021/04/02 05:55:22;;;;;;;;;;;20.80;46.60;;;;;;4972437;28;20338;-70
2021/04/02 05:57:48;;;;;;;;;;;20.80;46.60;;;;;;4974974;28;19925;-71
2021/04/02 06:00:14;;;;;;;;;;;20.80;46.60;;;;;;4974260;28;19921;-71
2021/04/02 06:02:41;;;;;;;;;;;20.80;46.70;;;;;;4972569;28;20369;-71
2021/04/02 06:05:08;;;;;;;;;;;20.80;46.60;;;;;;4973166;28;20020;-71
2021/04/02 06:07:34;;;;;;;;;;;20.80;46.70;;;;;;4974017;28;19922;-71
2021/04/02 06:10:00;;;;;;;;;;;20.80;46.70;;;;;;4975266;28;20344;-69
2021/04/02 06:12:26;;;;;;;;;;;20.80;46.80;;;;;;4972646;28;19930;-70
2021/04/02 06:14:52;;;;;;;;;;;20.80;46.80;;;;;;4970903;28;19929;-70
2021/04/02 06:17:18;;;;;;;;;;;20.80;46.80;;;;;;4974140;28;19932;-71
2021/04/02 06:19:45;;;;;;;;;;;20.80;46.90;;;;;;4964883;28;19929;-70
2021/04/02 06:22:11;;;;;;;;;;;20.80;46.70;;;;;;4959142;28;20353;-70
2021/04/02 06:24:38;;;;;;;;;;;20.80;46.80;;;;;;4985411;28;19929;-71
2021/04/02 06:27:04;;;;;;;;;;;20.80;46.80;;;;;;4991237;28;19925;-71
2021/04/02 06:29:30;;;;;;;;;;;20.80;46.80;;;;;;4981947;28;19933;-70
2021/04/02 06:31:56;;;;;;;;;;;20.80;46.80;;;;;;4975702;28;21331;-71
2021/04/02 06:34:23;;;;;;;;;;;20.70;46.70;;;;;;4971215;28;19933;-70
2021/04/02 06:36:50;;;;;;;;;;;20.70;46.90;;;;;;4975763;28;19933;-70
2021/04/02 06:39:16;;;;;;;;;;;20.70;46.70;;;;;;4973308;28;19926;-70
2021/04/02 06:41:42;;;;;;;;;;;20.70;46.80;;;;;;4975064;28;19933;-70
2021/04/02 06:44:08;;;;;;;;;;;20.70;47.00;;;;;;4969483;28;19929;-70
2021/04/02 06:46:35;;;;;;;;;;;20.70;47.00;;;;;;4972947;28;20015;-70
2021/04/02 06:49:08;;;;;;;;;;;20.70;47.00;;;;;;4963386;28;19979;-70
2021/04/02 06:51:34;;;;;;;;;;;20.70;47.00;;;;;;4972286;28;19926;-70
2021/04/02 06:54:01;;;;;;;;;;;20.70;46.90;;;;;;4974581;28;19933;-70
2021/04/02 06:56:27;;;;;;;;;;;20.70;46.90;;;;;;4961475;28;19926;-70
2021/04/02 06:58:53;;;;;;;;;;;20.70;46.80;;;;;;4972952;28;19933;-71
2021/04/02 07:01:19;;;;;;;;;;;20.70;46.90;;;;;;4973251;28;20064;-70
2021/04/02 07:03:45;;;;;;;;;;;20.70;46.90;;;;;;4972835;28;20537;-70
2021/04/02 07:06:11;;;;;;;;;;;20.70;46.70;;;;;;4974778;28;20020;-70
2021/04/02 07:08:38;;;;;;;;;;;20.60;46.90;;;;;;4972058;28;20280;-70
2021/04/02 07:11:05;;;;;;;;;;;20.60;46.80;;;;;;4974547;28;19930;-70
2021/04/02 07:13:32;;;;;;;;;;;20.60;46.90;;;;;;4970342;28;19929;-70
2021/04/02 07:15:58;;;;;;;;;;;20.60;46.80;;;;;;4973603;28;19925;-71
2021/04/02 07:18:24;;;;;;;;;;;20.70;46.70;;;;;;4975697;28;19933;-70
2021/04/02 07:20:50;;;;;;;;;;;20.70;46.60;;;;;;4979247;28;19934;-70
2021/04/02 07:23:16;;;;;;;;;;;20.70;46.70;;;;;;4978071;28;19926;-70
2021/04/02 07:25:43;;;;;;;;;;;20.60;46.70;;;;;;4966710;28;19949;-70
2021/04/02 07:28:10;;;;;;;;;;;20.60;46.70;;;;;;4977720;28;20020;-70
2021/04/02 07:30:36;;;;;;;;;;;20.60;46.70;;;;;;4977058;28;19981;-70
2021/04/02 07:33:02;;;;;;;;;;;20.60;46.40;;;;;;4981374;28;20144;-70
2021/04/02 07:35:28;;;;;;;;;;;20.60;46.40;;;;;;4978436;28;19948;-70
2021/04/02 07:37:55;;;;;;;;;;;20.60;46.40;;;;;;4976371;28;19926;-70
2021/04/02 07:40:22;;;;;;;;;;;20.60;46.60;;;;;;4976698;28;19933;-70
2021/04/02 07:42:48;;;;;;;;;;;20.60;46.40;;;;;;4976526;28;20405;-71
2021/04/02 07:45:15;;;;;;;;;;;20.60;46.50;;;;;;4977863;28;19925;-70
2021/04/02 07:47:41;;;;;;;;;;;20.50;46.40;;;;;;4974516;28;19926;-70
2021/04/02 07:50:09;;;;;;;;;;;20.50;46.40;;;;;;4970155;28;20424;-70
2021/04/02 07:52:38;;;;;;;;;;;20.50;46.60;;;;;;4977396;28;19925;-70
2021/04/02 07:55:08;;;;;;;;;;;20.50;46.70;;;;;;4976951;28;19922;-70
2021/04/02 07:57:48;;;;;;;;;;;20.50;46.60;;;;;;4976048;28;19930;-70
2021/04/02 08:00:14;;;;;;;;;;;20.60;46.60;;;;;;4956742;28;19925;-71
2021/04/02 08:02:42;;;;;;;;;;;20.60;46.50;;;;;;4975308;28;19926;-70
2021/04/02 08:05:13;;;;;;;;;;;20.60;46.60;;;;;;4965555;28;19952;-70
2021/04/02 08:07:40;;;;;;;;;;;20.60;46.60;;;;;;4975079;28;21414;-70
2021/04/02 08:10:07;;;;;;;;;;;20.60;46.50;;;;;;4976608;28;19926;-71
2021/04/02 08:12:33;;;;;;;;;;;20.60;46.80;;;;;;4975644;28;19933;-70
2021/04/02 08:15:01;;;;;;;;;;;20.50;46.50;;;;;;4975168;28;19934;-70
2021/04/02 08:17:28;;;;;;;;;;;20.50;46.40;;;;;;4975408;28;19926;-70
2021/04/02 08:20:00;;;;;;;;;;;20.50;46.60;;;;;;4976834;28;19933;-71
2021/04/02 08:22:26;;;;;;;;;;;20.50;46.40;;;;;;4973048;28;19977;-70
2021/04/02 08:24:52;;;;;;;;;;;20.50;46.30;;;;;;4962320;28;20005;-70
2021/04/02 08:27:18;;;;;;;;;;;20.50;46.30;;;;;;4976487;28;19930;-70
2021/04/02 08:29:44;;;;;;;;;;;20.50;46.30;;;;;;4951714;28;20436;-70
2021/04/02 08:32:11;;;;;;;;;;;20.50;46.30;;;;;;4978753;28;19980;-70
2021/04/02 08:34:37;;;;;;;;;;;20.50;46.50;;;;;;4975755;28;19950;-71
2021/04/02 08:37:04;;;;;;;;;;;20.50;46.30;;;;;;4977935;28;19987;-70
2021/04/02 08:39:30;;;;;;;;;;;20.50;46.30;;;;;;4974581;28;20337;-71
2021/04/02 08:41:59;;;;;;;;;;;20.50;46.40;;;;;;4977253;28;19926;-71
2021/04/02 08:44:31;;;;;;;;;;;20.50;46.40;;;;;;4970591;28;19933;-71
2021/04/02 08:46:57;;;;;;;;;;;20.50;46.60;;;;;;4977648;28;20434;-71
2021/04/02 08:49:23;;;;;;;;;;;20.50;46.50;;;;;;4976747;28;19930;-71
2021/04/02 08:51:49;;;;;;;;;;;20.50;46.30;;;;;;4978047;28;19933;-71
2021/04/02 08:54:16;;;;;;;;;;;20.50;46.20;;;;;;4974752;28;19925;-71
2021/04/02 08:56:42;;;;;;;;;;;20.60;46.20;;;;;;4976437;28;19930;-70
2021/04/02 08:59:09;;;;;;;;;;;20.60;46.20;;;;;;4976430;28;19929;-71
2021/04/02 09:01:38;;;;;;;;;;;20.60;46.30;;;;;;4973811;28;20437;-71
2021/04/02 09:04:06;;;;;;;;;;;20.50;46.50;;;;;;4973884;28;19925;-71
2021/04/02 09:06:32;;;;;;;;;;;20.50;46.40;;;;;;4975354;28;19926;-70
2021/04/02 09:08:58;;;;;;;;;;;20.50;46.40;;;;;;4975251;28;20294;-72
2021/04/02 09:11:24;;;;;;;;;;;20.50;46.40;;;;;;4973455;28;19925;-70
2021/04/02 09:13:50;;;;;;;;;;;20.50;46.20;;;;;;4971751;28;19929;-71
2021/04/02 09:16:18;;;;;;;;;;;20.60;46.20;;;;;;4975545;28;20372;-70
2021/04/02 09:18:47;;;;;;;;;;;20.60;46.10;;;;;;4943630;28;19926;-71
2021/04/02 09:21:14;;;;;;;;;;;20.50;46.00;;;;;;4972579;28;19964;-71
2021/04/02 09:23:40;;;;;;;;;;;20.60;46.10;;;;;;4974535;28;19926;-70
2021/04/02 09:26:07;;;;;;;;;;;20.50;46.10;;;;;;4974405;28;19945;-70
2021/04/02 09:28:34;;;;;;;;;;;20.50;46.30;;;;;;4972808;28;20322;-71
2021/04/02 09:31:13;;;;;;;;;;;20.50;46.10;;;;;;4975699;28;19925;-71
2021/04/02 09:33:40;;;;;;;;;;;20.50;46.30;;;;;;4972981;28;19938;-71
2021/04/02 09:36:06;;;;;;;;;;;20.50;46.20;;;;;;4977110;28;19929;-70
2021/04/02 09:38:32;;;;;;;;;;;20.50;46.10;;;;;;4973812;28;19926;-70
2021/04/02 09:40:58;;;;;;;;;;;20.50;46.10;;;;;;4976359;28;19930;-71
2021/04/02 09:43:24;;;;;;;;;;;20.50;46.10;;;;;;4972971;28;19926;-71
2021/04/02 09:45:51;;;;;;;;;;;20.50;46.10;;;;;;4973179;28;19933;-71
2021/04/02 09:48:21;;;;;;;;;;;20.50;46.10;;;;;;4971340;28;19984;-70
2021/04/02 09:50:47;;;;;;;;;;;20.50;46.20;;;;;;4949956;28;19980;-70
2021/04/02 09:53:13;;;;;;;;;;;20.50;46.40;;;;;;4976165;28;19972;-71
2021/04/02 09:55:40;;;;;;;;;;;20.50;46.30;;;;;;4978123;28;20398;-71
2021/04/02 09:58:07;;;;;;;;;;;20.50;46.00;;;;;;5000659;28;19930;-72
2021/04/02 10:00:33;;;;;;;;;;;20.50;46.40;;;;;;4993322;28;19933;-71
2021/04/02 10:02:59;;;;;;;;;;;20.40;46.20;;;;;;4981920;28;19975;-71
2021/04/02 10:05:26;;;;;;;;;;;20.40;46.00;;;;;;4954926;28;20016;-70
2021/04/02 10:07:52;;;;;;;;;;;20.40;46.00;;;;;;4975871;28;19929;-71
2021/04/02 10:10:18;;;;;;;;;;;20.40;45.90;;;;;;4953793;28;19941;-70
2021/04/02 10:12:44;;;;;;;;;;;20.40;46.00;;;;;;4965924;28;19948;-71
2021/04/02 10:15:10;;;;;;;;;;;20.40;46.00;;;;;;4974191;28;19925;-71
2021/04/02 10:17:37;;;;;;;;;;;20.40;45.90;;;;;;4974674;28;19925;-70
2021/04/02 10:20:04;;;;;;;;;;;20.40;45.80;;;;;;4976058;28;19925;-71
2021/04/02 10:22:30;;;;;;;;;;;20.40;45.90;;;;;;4973910;28;19925;-71
2021/04/02 10:24:57;;;;;;;;;;;20.40;45.80;;;;;;4971472;28;20011;-71
2021/04/02 10:27:24;;;;;;;;;;;20.40;46.20;;;;;;4974646;28;20860;-71
2021/04/02 10:29:50;;;;;;;;;;;20.40;46.30;;;;;;4975461;28;19977;-72
2021/04/02 10:32:16;;;;;;;;;;;20.40;46.20;;;;;;4973670;28;19926;-71
2021/04/02 10:34:42;;;;;;;;;;;20.40;46.30;;;;;;4975058;28;20357;-70
2021/04/02 10:37:09;;;;;;;;;;;20.40;46.10;;;;;;4974338;28;19930;-71
2021/04/02 10:39:35;;;;;;;;;;;20.40;46.00;;;;;;4972289;28;19926;-71
2021/04/02 10:42:01;;;;;;;;;;;20.40;46.00;;;;;;4974914;28;19922;-71
2021/04/02 10:44:27;;;;;;;;;;;20.40;46.20;;;;;;4968108;28;20330;-71
2021/04/02 10:46:54;;;;;;;;;;;20.50;46.10;;;;;;4975560;28;19926;-71
2021/04/02 10:49:20;;;;;;;;;;;20.40;46.20;;;;;;4974439;28;19984;-72
2021/04/02 10:51:46;;;;;;;;;;;20.40;46.40;;;;;;4976503;28;19926;-71
2021/04/02 10:54:12;;;;;;;;;;;20.40;46.10;;;;;;4966754;28;19929;-71
2021/04/02 10:56:38;;;;;;;;;;;20.40;46.20;;;;;;4970881;28;19925;-71
2021/04/02 10:59:04;;;;;;;;;;;20.40;46.00;;;;;;4973814;28;19975;-70
2021/04/02 11:01:30;;;;;;;;;;;20.40;46.10;;;;;;4974315;28;19922;-71
2021/04/02 11:03:56;;;;;;;;;;;20.40;46.00;;;;;;4977147;28;20052;-71
2021/04/02 11:06:23;;;;;;;;;;;20.40;46.00;;;;;;4963829;28;19951;-71
2021/04/02 11:08:49;;;;;;;;;;;20.40;46.00;;;;;;4974515;28;19929;-71
2021/04/02 11:11:16;;;;;;;;;;;20.40;46.10;;;;;;4966228;28;19925;-71
2021/04/02 11:13:42;;;;;;;;;;;20.40;46.20;;;;;;4958067;28;20106;-71
2021/04/02 11:16:08;;;;;;;;;;;20.40;46.20;;;;;;4975151;28;19917;-71
2021/04/02 11:18:34;;;;;;;;;;;20.40;45.90;;;;;;4972233;28;20389;-71
2021/04/02 11:21:00;;;;;;;;;;;20.40;45.90;;;;;;4967169;28;19921;-72
2021/04/02 11:23:26;;;;;;;;;;;20.40;45.90;;;;;;4972735;28;20366;-71
2021/04/02 11:25:52;;;;;;;;;;;20.40;45.90;;;;;;4961304;28;19926;-72
2021/04/02 11:28:19;;;;;;;;;;;20.40;46.00;;;;;;4972546;28;19921;-71
2021/04/02 11:30:45;;;;;;;;;;;20.40;45.90;;;;;;4938450;28;19922;-71
2021/04/02 11:33:11;;;;;;;;;;;20.40;45.90;;;;;;4970311;28;19930;-71
2021/04/02 11:35:37;;;;;;;;;;;20.40;46.00;;;;;;4962963;28;19988;-70
2021/04/02 11:38:03;;;;;;;;;;;20.40;46.00;;;;;;4974028;28;19921;-71
2021/04/02 11:40:31;;;;;;;;;;;20.40;46.00;;;;;;4973198;28;19921;-71
2021/04/02 11:42:57;;;;;;;;;;;20.40;45.90;;;;;;4961619;28;19930;-70
2021/04/02 11:45:24;;;;;;;;;;;20.40;45.80;;;;;;4970647;28;19926;-70
2021/04/02 11:47:50;;;;;;;;;;;20.40;45.70;;;;;;4965768;28;19925;-71
2021/04/02 11:50:16;;;;;;;;;;;20.50;45.70;;;;;;4972256;28;19929;-71
2021/04/02 11:52:42;;;;;;;;;;;20.50;45.70;;;;;;4976062;28;21297;-71
2021/04/02 11:55:08;;;;;;;;;;;20.50;45.70;;;;;;4972346;28;21281;-70
2021/04/02 11:57:34;;;;;;;;;;;20.50;46.30;;;;;;4964648;28;19933;-71
2021/04/02 12:00:01;;;;;;;;;;;20.50;45.80;;;;;;4974267;28;19933;-71
2021/04/02 12:02:27;;;;;;;;;;;20.40;45.70;;;;;;4972171;28;19926;-71
2021/04/02 12:04:53;;;;;;;;;;;20.40;45.80;;;;;;4976412;28;19930;-71
2021/04/02 12:07:19;;;;;;;;;;;20.40;45.70;;;;;;4975941;28;19949;-73
2021/04/02 12:09:46;;;;;;;;;;;20.40;45.60;;;;;;4974904;28;19980;-71
2021/04/02 12:12:12;;;;;;;;;;;20.40;45.70;;;;;;4974457;28;20540;-71
2021/04/02 12:14:38;;;;;;;;;;;20.40;45.60;;;;;;4971155;28;19957;-71
2021/04/02 12:17:04;;;;;;;;;;;20.40;45.40;;;;;;4974925;28;19925;-71
2021/04/02 12:19:31;;;;;;;;;;;20.40;45.20;;;;;;4973583;28;19925;-70
2021/04/02 12:21:57;;;;;;;;;;;20.40;45.20;;;;;;4979134;28;19980;-71
2021/04/02 12:24:23;;;;;;;;;;;20.50;45.40;;;;;;4972761;28;19929;-70
2021/04/02 12:26:49;;;;;;;;;;;20.50;45.30;;;;;;4978150;28;20357;-71
2021/04/02 12:29:15;;;;;;;;;;;20.50;45.40;;;;;;4974468;28;19925;-71
2021/04/02 12:31:41;;;;;;;;;;;20.50;45.30;;;;;;4978548;28;19977;-71
2021/04/02 12:34:07;;;;;;;;;;;20.50;45.30;;;;;;4976848;28;19926;-70
2021/04/02 12:36:34;;;;;;;;;;;20.60;45.50;;;;;;4976271;28;19925;-71
2021/04/02 12:39:00;;;;;;;;;;;20.60;45.40;;;;;;4976581;28;19925;-71
2021/04/02 12:41:26;;;;;;;;;;;20.60;45.50;;;;;;4976394;28;20317;-71
2021/04/02 12:43:54;;;;;;;;;;;20.60;45.50;;;;;;4961712;28;19925;-70
2021/04/02 12:46:20;;;;;;;;;;;20.60;45.50;;;;;;4967239;28;19930;-71
2021/04/02 12:48:46;;;;;;;;;;;20.60;45.50;;;;;;4976537;28;20350;-71
2021/04/02 12:51:12;;;;;;;;;;;20.60;45.30;;;;;;4979752;28;19949;-71
2021/04/02 12:53:38;;;;;;;;;;;20.60;45.30;;;;;;4965573;28;19973;-71
2021/04/02 12:56:05;;;;;;;;;;;20.70;45.40;;;;;;4971871;28;19925;-71
2021/04/02 12:58:31;;;;;;;;;;;20.60;45.30;;;;;;4976942;28;19926;-71
2021/04/02 13:00:57;;;;;;;;;;;20.60;45.40;;;;;;4978133;28;19948;-71
2021/04/02 13:03:23;;;;;;;;;;;20.60;45.40;;;;;;4972860;28;19926;-70
2021/04/02 13:05:49;;;;;;;;;;;20.60;45.30;;;;;;4977903;28;20416;-71
2021/04/02 13:08:15;;;;;;;;;;;20.60;45.30;;;;;;4975752;28;19926;-71
2021/04/02 13:10:42;;;;;;;;;;;20.60;45.50;;;;;;4978182;28;19925;-71
2021/04/02 13:13:08;;;;;;;;;;;20.60;45.50;;;;;;4971205;28;19926;-71
2021/04/02 13:15:34;;;;;;;;;;;20.60;45.50;;;;;;4973395;28;20392;-71
2021/04/02 13:18:00;;;;;;;;;;;20.60;45.50;;;;;;4975689;28;19933;-71
2021/04/02 13:20:26;;;;;;;;;;;20.60;45.30;;;;;;4973379;28;19933;-71
2021/04/02 13:22:52;;;;;;;;;;;20.60;45.50;;;;;;4978838;28;19925;-71
2021/04/02 13:25:18;;;;;;;;;;;20.60;45.30;;;;;;4972690;28;20464;-71
2021/04/02 13:27:45;;;;;;;;;;;20.60;45.40;;;;;;4977326;28;19929;-71
2021/04/02 13:30:12;;;;;;;;;;;20.60;45.40;;;;;;4985561;28;19925;-71
2021/04/02 13:32:38;;;;;;;;;;;20.60;45.50;;;;;;4986681;28;19926;-72
2021/04/02 13:35:05;;;;;;;;;;;20.60;45.40;;;;;;4983159;28;19926;-71
2021/04/02 13:37:31;;;;;;;;;;;20.60;45.50;;;;;;4979544;28;19933;-71
2021/04/02 13:39:57;;;;;;;;;;;20.60;45.60;;;;;;4961374;28;19925;-71
2021/04/02 13:42:23;;;;;;;;;;;20.50;45.40;;;;;;4973154;28;19926;-71
2021/04/02 13:44:50;;;;;;;;;;;20.50;45.60;;;;;;4972706;28;20325;-71
2021/04/02 13:47:16;;;;;;;;;;;20.50;45.70;;;;;;4975225;28;19929;-71
2021/04/02 13:49:42;;;;;;;;;;;20.50;45.70;;;;;;4974729;28;19933;-71
2021/04/02 13:52:08;;;;;;;;;;;20.50;46.00;;;;;;4975048;28;19941;-70
2021/04/02 13:54:34;;;;;;;;;;;20.50;46.00;;;;;;4973955;28;19933;-71
2021/04/02 13:57:00;;;;;;;;;;;20.50;45.90;;;;;;4975266;28;19961;-71
2021/04/02 13:59:26;;;;;;;;;;;20.50;46.00;;;;;;4972489;28;19926;-71
2021/04/02 14:01:52;;;;;;;;;;;20.50;46.00;;;;;;4977140;28;19930;-71
2021/04/02 14:04:18;;;;;;;;;;;20.60;45.90;;;;;;4975678;28;20378;-71
2021/04/02 14:06:44;;;;;;;;;;;20.60;46.00;;;;;;4974148;28;19984;-71
2021/04/02 14:09:10;;;;;;;;;;;20.60;45.90;;;;;;4975659;28;19980;-72
2021/04/02 14:11:36;;;;;;;;;;;20.60;46.00;;;;;;4976132;28;19930;-71